sensor_id;sensor_type;location;lat;lon;timestamp;temperature;humidity
29725;DHT22;16636;48.394;15.468;2022-09-06T00:00:40;19.00;99.90
29725;DHT22;16636;48.394;15.468;2022-09-06T00:03:07;19.00;99.90
29725;DHT22;16636;48.394;15.468;2022-09-06T00:05:33;19.00;99.90
29725;DHT22;16636;48.394;15.468;2022-09-06T00:08:04;19.00;99.90
29725;DHT22;16636;48.394;15.468;2022-09-06T00:10:31;18.90;99.90
29725;DHT22;16636;48.394;15.468;2022-09-06T00:13:02;18.90;99.90
29725;DHT22;16636;48.394;15.468;2022-09-06T00:15:29;18.90;99.90
29725;DHT22;16636;48.394;15.468;2022-09-06T00:17:57;18.90;99.90
29725;DHT22;16636;48.394;15.468;2022-09-06T00:20:24;18.90;99.90
29725;DHT22;16636;48.394;15.468;2022-09-06T00:22:59;18.90;99.90
29725;DHT22;16636;48.394;15.468;2022-09-06T00:25:25;18.80;99.90
29725;DHT22;16636;48.394;15.468;2022-09-06T00:27:56;18.80;99.90
29725;DHT22;16636;48.394;15.468;2022-09-06T00:30:23;18.80;99.90
29725;DHT22;16636;48.394;15.468;2022-09-06T00:32:50;18.80;99.90
29725;DHT22;16636;48.394;15.468;2022-09-06T00:35:17;18.70;99.90
29725;DHT22;16636;48.394;15.468;2022-09-06T00:37:43;18.80;99.90
29725;DHT22;16636;48.394;15.468;2022-09-06T00:40:09;18.80;99.90
29725;DHT22;16636;48.394;15.468;2022-09-06T00:42:35;18.70;99.90
29725;DHT22;16636;48.394;15.468;2022-09-06T00:45:02;18.70;99.90
29725;DHT22;16636;48.394;15.468;2022-09-06T00:47:28;18.70;99.90
29725;DHT22;16636;48.394;15.468;2022-09-06T00:49:55;18.60;99.90
29725;DHT22;16636;48.394;15.468;2022-09-06T00:52:23;18.60;99.90
29725;DHT22;16636;48.394;15.468;2022-09-06T00:54:51;18.60;99.90
29725;DHT22;16636;48.394;15.468;2022-09-06T00:57:17;18.60;99.90
29725;DHT22;16636;48.394;15.468;2022-09-06T00:59:45;18.60;99.90
29725;DHT22;16636;48.394;15.468;2022-09-06T01:02:12;18.60;99.90
29725;DHT22;16636;48.394;15.468;2022-09-06T01:04:40;18.50;99.90
29725;DHT22;16636;48.394;15.468;2022-09-06T01:23:32;18.40;99.90
29725;DHT22;16636;48.394;15.468;2022-09-06T01:29:11;18.30;99.90
29725;DHT22;16636;48.394;15.468;2022-09-06T01:32:11;18.30;99.90
29725;DHT22;16636;48.394;15.468;2022-09-06T01:34:47;18.30;99.90
29725;DHT22;16636;48.394;15.468;2022-09-06T01:37:17;18.20;99.90
29725;DHT22;16636;48.394;15.468;2022-09-06T01:39:44;18.20;99.90
29725;DHT22;16636;48.394;15.468;2022-09-06T01:44:52;18.10;99.90
29725;DHT22;16636;48.394;15.468;2022-09-06T02:02:14;18.10;99.90
29725;DHT22;16636;48.394;15.468;2022-09-06T02:04:46;18.10;99.90
29725;DHT22;16636;48.394;15.468;2022-09-06T02:07:24;18.00;99.90
29725;DHT22;16636;48.394;15.468;2022-09-06T02:10:06;18.00;99.90
29725;DHT22;16636;48.394;15.468;2022-09-06T02:12:40;17.90;99.90
29725;DHT22;16636;48.394;15.468;2022-09-06T02:15:18;17.90;99.90
29725;DHT22;16636;48.394;15.468;2022-09-06T02:18:07;17.90;99.90
29725;DHT22;16636;48.394;15.468;2022-09-06T02:20:40;17.90;99.90
29725;DHT22;16636;48.394;15.468;2022-09-06T02:23:07;17.90;99.90
29725;DHT22;16636;48.394;15.468;2022-09-06T02:25:39;17.90;99.90
29725;DHT22;16636;48.394;15.468;2022-09-06T02:28:07;17.80;99.90
29725;DHT22;16636;48.394;15.468;2022-09-06T02:30:43;17.80;99.90
29725;DHT22;16636;48.394;15.468;2022-09-06T02:33:15;17.90;99.90
29725;DHT22;16636;48.394;15.468;2022-09-06T02:35:50;17.80;99.90
29725;DHT22;16636;48.394;15.468;2022-09-06T02:38:34;17.80;99.90
29725;DHT22;16636;48.394;15.468;2022-09-06T02:41:19;17.80;99.90
29725;DHT22;16636;48.394;15.468;2022-09-06T02:43:48;17.80;99.90
29725;DHT22;16636;48.394;15.468;2022-09-06T02:46:14;17.80;99.90
29725;DHT22;16636;48.394;15.468;2022-09-06T02:48:40;17.80;99.90
29725;DHT22;16636;48.394;15.468;2022-09-06T02:51:07;17.70;99.90
29725;DHT22;16636;48.394;15.468;2022-09-06T02:53:33;17.70;99.90
29725;DHT22;16636;48.394;15.468;2022-09-06T02:55:59;17.70;99.90
29725;DHT22;16636;48.394;15.468;2022-09-06T02:58:27;17.70;99.90
29725;DHT22;16636;48.394;15.468;2022-09-06T03:00:53;17.60;99.90
29725;DHT22;16636;48.394;15.468;2022-09-06T03:03:20;17.60;99.90
29725;DHT22;16636;48.394;15.468;2022-09-06T03:05:48;17.50;99.90
29725;DHT22;16636;48.394;15.468;2022-09-06T03:08:18;17.50;99.90
29725;DHT22;16636;48.394;15.468;2022-09-06T03:10:48;17.40;99.90
29725;DHT22;16636;48.394;15.468;2022-09-06T03:13:14;17.50;99.90
29725;DHT22;16636;48.394;15.468;2022-09-06T03:15:40;17.40;99.90
29725;DHT22;16636;48.394;15.468;2022-09-06T03:18:06;17.50;99.90
29725;DHT22;16636;48.394;15.468;2022-09-06T03:20:32;17.50;99.90
29725;DHT22;16636;48.394;15.468;2022-09-06T03:22:58;17.50;99.90
29725;DHT22;16636;48.394;15.468;2022-09-06T03:25:24;17.40;99.90
29725;DHT22;16636;48.394;15.468;2022-09-06T03:27:50;17.40;99.90
29725;DHT22;16636;48.394;15.468;2022-09-06T03:30:16;17.40;99.90
29725;DHT22;16636;48.394;15.468;2022-09-06T03:32:42;17.30;99.90
29725;DHT22;16636;48.394;15.468;2022-09-06T03:35:08;17.30;99.90
29725;DHT22;16636;48.394;15.468;2022-09-06T03:37:34;17.20;99.90
29725;DHT22;16636;48.394;15.468;2022-09-06T03:40:02;17.10;99.90
29725;DHT22;16636;48.394;15.468;2022-09-06T03:42:28;17.10;99.90
29725;DHT22;16636;48.394;15.468;2022-09-06T03:44:54;17.10;99.90
29725;DHT22;16636;48.394;15.468;2022-09-06T03:47:20;17.10;99.90
29725;DHT22;16636;48.394;15.468;2022-09-06T03:49:46;17.10;99.90
29725;DHT22;16636;48.394;15.468;2022-09-06T03:52:12;17.20;99.90
29725;DHT22;16636;48.394;15.468;2022-09-06T03:54:38;17.20;99.90
29725;DHT22;16636;48.394;15.468;2022-09-06T03:57:05;17.20;99.90
29725;DHT22;16636;48.394;15.468;2022-09-06T03:59:32;17.20;99.90
29725;DHT22;16636;48.394;15.468;2022-09-06T04:01:57;17.20;99.90
29725;DHT22;16636;48.394;15.468;2022-09-06T04:04:23;17.10;99.90
29725;DHT22;16636;48.394;15.468;2022-09-06T04:06:49;17.10;99.90
29725;DHT22;16636;48.394;15.468;2022-09-06T04:09:15;17.10;99.90
29725;DHT22;16636;48.394;15.468;2022-09-06T04:11:41;17.10;99.90
29725;DHT22;16636;48.394;15.468;2022-09-06T04:14:12;17.00;99.90
29725;DHT22;16636;48.394;15.468;2022-09-06T04:16:38;17.10;99.90
29725;DHT22;16636;48.394;15.468;2022-09-06T04:19:04;17.10;99.90
29725;DHT22;16636;48.394;15.468;2022-09-06T04:21:30;17.00;99.90
29725;DHT22;16636;48.394;15.468;2022-09-06T04:23:56;17.00;99.90
29725;DHT22;16636;48.394;15.468;2022-09-06T04:26:34;17.00;99.90
29725;DHT22;16636;48.394;15.468;2022-09-06T04:29:00;17.00;99.90
29725;DHT22;16636;48.394;15.468;2022-09-06T04:31:26;17.00;99.90
29725;DHT22;16636;48.394;15.468;2022-09-06T04:33:52;17.00;99.90
29725;DHT22;16636;48.394;15.468;2022-09-06T04:36:18;17.00;99.90
29725;DHT22;16636;48.394;15.468;2022-09-06T04:38:44;16.90;99.90
29725;DHT22;16636;48.394;15.468;2022-09-06T04:44:39;16.90;99.90
29725;DHT22;16636;48.394;15.468;2022-09-06T04:47:13;16.90;99.90
29725;DHT22;16636;48.394;15.468;2022-09-06T04:49:40;16.90;99.90
29725;DHT22;16636;48.394;15.468;2022-09-06T04:52:06;16.90;99.90
29725;DHT22;16636;48.394;15.468;2022-09-06T04:54:32;16.80;99.90
29725;DHT22;16636;48.394;15.468;2022-09-06T04:56:58;16.80;99.90
29725;DHT22;16636;48.394;15.468;2022-09-06T04:59:24;16.80;99.90
29725;DHT22;16636;48.394;15.468;2022-09-06T05:01:50;16.80;99.90
29725;DHT22;16636;48.394;15.468;2022-09-06T05:04:16;16.80;99.90
29725;DHT22;16636;48.394;15.468;2022-09-06T05:06:42;16.80;99.90
29725;DHT22;16636;48.394;15.468;2022-09-06T05:09:11;16.90;99.90
29725;DHT22;16636;48.394;15.468;2022-09-06T05:11:40;16.80;99.90
29725;DHT22;16636;48.394;15.468;2022-09-06T05:17:19;16.90;99.90
29725;DHT22;16636;48.394;15.468;2022-09-06T05:19:45;16.90;99.90
29725;DHT22;16636;48.394;15.468;2022-09-06T05:22:11;17.00;99.90
29725;DHT22;16636;48.394;15.468;2022-09-06T05:24:37;17.00;99.90
29725;DHT22;16636;48.394;15.468;2022-09-06T05:27:03;17.10;99.90
29725;DHT22;16636;48.394;15.468;2022-09-06T05:29:30;17.10;99.90
29725;DHT22;16636;48.394;15.468;2022-09-06T05:31:56;17.10;99.90
29725;DHT22;16636;48.394;15.468;2022-09-06T05:34:22;17.10;99.90
29725;DHT22;16636;48.394;15.468;2022-09-06T05:39:57;17.10;99.90
29725;DHT22;16636;48.394;15.468;2022-09-06T05:42:24;17.20;99.90
29725;DHT22;16636;48.394;15.468;2022-09-06T05:44:50;17.20;99.90
29725;DHT22;16636;48.394;15.468;2022-09-06T05:47:16;17.20;99.90
29725;DHT22;16636;48.394;15.468;2022-09-06T05:49:42;17.20;99.90
29725;DHT22;16636;48.394;15.468;2022-09-06T05:52:08;17.10;99.90
29725;DHT22;16636;48.394;15.468;2022-09-06T05:54:34;17.10;99.90
29725;DHT22;16636;48.394;15.468;2022-09-06T05:57:00;17.20;99.90
29725;DHT22;16636;48.394;15.468;2022-09-06T05:59:28;17.30;99.90
29725;DHT22;16636;48.394;15.468;2022-09-06T06:01:54;17.30;99.90
29725;DHT22;16636;48.394;15.468;2022-09-06T06:04:20;17.30;99.90
29725;DHT22;16636;48.394;15.468;2022-09-06T06:06:47;17.40;99.90
29725;DHT22;16636;48.394;15.468;2022-09-06T06:09:14;17.50;99.90
29725;DHT22;16636;48.394;15.468;2022-09-06T06:11:40;17.50;99.90
29725;DHT22;16636;48.394;15.468;2022-09-06T06:14:07;17.50;99.90
29725;DHT22;16636;48.394;15.468;2022-09-06T06:16:33;17.50;99.90
29725;DHT22;16636;48.394;15.468;2022-09-06T06:18:59;17.60;99.90
29725;DHT22;16636;48.394;15.468;2022-09-06T06:21:30;17.60;99.90
29725;DHT22;16636;48.394;15.468;2022-09-06T06:23:58;17.70;99.90
29725;DHT22;16636;48.394;15.468;2022-09-06T06:26:26;17.70;99.90
29725;DHT22;16636;48.394;15.468;2022-09-06T06:32:07;17.70;99.90
29725;DHT22;16636;48.394;15.468;2022-09-06T06:34:33;17.80;99.90
29725;DHT22;16636;48.394;15.468;2022-09-06T06:36:59;17.80;99.90
29725;DHT22;16636;48.394;15.468;2022-09-06T06:39:25;17.80;99.90
29725;DHT22;16636;48.394;15.468;2022-09-06T06:41:52;17.80;99.90
29725;DHT22;16636;48.394;15.468;2022-09-06T06:44:31;17.80;99.90
29725;DHT22;16636;48.394;15.468;2022-09-06T06:46:57;17.90;99.90
29725;DHT22;16636;48.394;15.468;2022-09-06T06:49:26;18.00;99.90
29725;DHT22;16636;48.394;15.468;2022-09-06T06:51:52;18.00;99.90
29725;DHT22;16636;48.394;15.468;2022-09-06T06:54:18;18.00;99.90
29725;DHT22;16636;48.394;15.468;2022-09-06T06:56:44;18.10;99.90
29725;DHT22;16636;48.394;15.468;2022-09-06T06:59:10;18.10;99.90
29725;DHT22;16636;48.394;15.468;2022-09-06T07:01:36;18.10;99.90
29725;DHT22;16636;48.394;15.468;2022-09-06T07:04:03;18.10;99.90
29725;DHT22;16636;48.394;15.468;2022-09-06T07:06:29;18.10;99.90
29725;DHT22;16636;48.394;15.468;2022-09-06T07:08:56;18.20;99.90
29725;DHT22;16636;48.394;15.468;2022-09-06T07:11:22;18.20;99.90
29725;DHT22;16636;48.394;15.468;2022-09-06T07:13:48;18.30;99.90
29725;DHT22;16636;48.394;15.468;2022-09-06T07:16:22;18.40;99.90
29725;DHT22;16636;48.394;15.468;2022-09-06T07:19:04;18.50;99.90
29725;DHT22;16636;48.394;15.468;2022-09-06T07:21:32;18.50;99.90
29725;DHT22;16636;48.394;15.468;2022-09-06T07:23:58;18.60;99.90
29725;DHT22;16636;48.394;15.468;2022-09-06T07:26:28;18.70;99.90
29725;DHT22;16636;48.394;15.468;2022-09-06T07:28:57;18.70;99.90
29725;DHT22;16636;48.394;15.468;2022-09-06T07:31:24;18.70;99.90
29725;DHT22;16636;48.394;15.468;2022-09-06T07:33:51;18.80;99.90
29725;DHT22;16636;48.394;15.468;2022-09-06T07:36:17;18.80;99.90
29725;DHT22;16636;48.394;15.468;2022-09-06T07:38:47;18.90;99.90
29725;DHT22;16636;48.394;15.468;2022-09-06T07:41:13;18.90;99.90
29725;DHT22;16636;48.394;15.468;2022-09-06T07:44:00;19.00;99.90
29725;DHT22;16636;48.394;15.468;2022-09-06T07:46:26;19.00;99.90
29725;DHT22;16636;48.394;15.468;2022-09-06T07:48:52;19.10;99.90
29725;DHT22;16636;48.394;15.468;2022-09-06T07:51:19;19.20;99.90
29725;DHT22;16636;48.394;15.468;2022-09-06T07:53:51;19.20;99.90
29725;DHT22;16636;48.394;15.468;2022-09-06T07:56:18;19.30;99.90
29725;DHT22;16636;48.394;15.468;2022-09-06T07:58:44;19.30;99.90
29725;DHT22;16636;48.394;15.468;2022-09-06T08:03:52;19.40;99.90
29725;DHT22;16636;48.394;15.468;2022-09-06T08:06:19;19.50;99.90
29725;DHT22;16636;48.394;15.468;2022-09-06T08:08:45;19.50;99.90
29725;DHT22;16636;48.394;15.468;2022-09-06T08:11:11;19.50;99.90
29725;DHT22;16636;48.394;15.468;2022-09-06T08:13:37;19.60;99.90
29725;DHT22;16636;48.394;15.468;2022-09-06T08:16:06;19.60;99.90
29725;DHT22;16636;48.394;15.468;2022-09-06T08:18:33;19.70;99.90
29725;DHT22;16636;48.394;15.468;2022-09-06T08:21:11;19.80;99.90
29725;DHT22;16636;48.394;15.468;2022-09-06T08:24:00;19.80;99.90
29725;DHT22;16636;48.394;15.468;2022-09-06T08:26:26;19.90;99.90
29725;DHT22;16636;48.394;15.468;2022-09-06T08:28:57;20.00;99.90
29725;DHT22;16636;48.394;15.468;2022-09-06T08:31:25;20.00;99.90
29725;DHT22;16636;48.394;15.468;2022-09-06T08:33:52;20.10;99.90
29725;DHT22;16636;48.394;15.468;2022-09-06T08:36:18;20.30;99.90
29725;DHT22;16636;48.394;15.468;2022-09-06T08:38:44;20.40;99.90
29725;DHT22;16636;48.394;15.468;2022-09-06T08:41:23;20.40;99.90
29725;DHT22;16636;48.394;15.468;2022-09-06T08:44:01;20.50;99.90
29725;DHT22;16636;48.394;15.468;2022-09-06T08:46:39;20.60;99.90
29725;DHT22;16636;48.394;15.468;2022-09-06T08:49:08;20.70;99.90
29725;DHT22;16636;48.394;15.468;2022-09-06T08:59:50;21.00;99.90
29725;DHT22;16636;48.394;15.468;2022-09-06T09:02:20;21.10;99.90
29725;DHT22;16636;48.394;15.468;2022-09-06T09:04:52;21.00;99.90
29725;DHT22;16636;48.394;15.468;2022-09-06T09:07:41;21.10;99.90
29725;DHT22;16636;48.394;15.468;2022-09-06T09:10:33;21.30;99.90
29725;DHT22;16636;48.394;15.468;2022-09-06T09:13:03;21.30;99.90
29725;DHT22;16636;48.394;15.468;2022-09-06T09:15:34;21.30;99.90
29725;DHT22;16636;48.394;15.468;2022-09-06T09:18:01;21.50;99.90
29725;DHT22;16636;48.394;15.468;2022-09-06T09:20:28;21.70;99.90
29725;DHT22;16636;48.394;15.468;2022-09-06T09:22:58;21.70;99.90
29725;DHT22;16636;48.394;15.468;2022-09-06T09:25:27;21.70;99.90
29725;DHT22;16636;48.394;15.468;2022-09-06T09:27:56;22.00;99.90
29725;DHT22;16636;48.394;15.468;2022-09-06T09:30:53;22.00;99.90
29725;DHT22;16636;48.394;15.468;2022-09-06T09:33:26;22.10;99.90
29725;DHT22;16636;48.394;15.468;2022-09-06T09:35:53;22.30;99.90
29725;DHT22;16636;48.394;15.468;2022-09-06T09:38:23;22.40;99.90
29725;DHT22;16636;48.394;15.468;2022-09-06T09:40:57;22.40;99.90
29725;DHT22;16636;48.394;15.468;2022-09-06T09:43:28;22.30;99.90
29725;DHT22;16636;48.394;15.468;2022-09-06T09:46:27;22.30;99.90
29725;DHT22;16636;48.394;15.468;2022-09-06T09:49:13;22.50;99.90
29725;DHT22;16636;48.394;15.468;2022-09-06T09:52:03;22.60;99.90
29725;DHT22;16636;48.394;15.468;2022-09-06T09:54:41;22.70;99.90
29725;DHT22;16636;48.394;15.468;2022-09-06T09:57:13;22.90;99.90
29725;DHT22;16636;48.394;15.468;2022-09-06T09:59:47;23.00;99.90
29725;DHT22;16636;48.394;15.468;2022-09-06T10:02:29;23.20;99.90
29725;DHT22;16636;48.394;15.468;2022-09-06T10:05:07;23.40;99.90
29725;DHT22;16636;48.394;15.468;2022-09-06T10:07:44;23.50;99.90
29725;DHT22;16636;48.394;15.468;2022-09-06T10:15:38;23.80;99.90
29725;DHT22;16636;48.394;15.468;2022-09-06T10:18:04;23.90;99.90
29725;DHT22;16636;48.394;15.468;2022-09-06T10:21:13;24.00;99.90
29725;DHT22;16636;48.394;15.468;2022-09-06T10:30:11;24.40;99.90
29725;DHT22;16636;48.394;15.468;2022-09-06T10:35:37;24.80;99.90
29725;DHT22;16636;48.394;15.468;2022-09-06T10:44:17;25.20;99.90
29725;DHT22;16636;48.394;15.468;2022-09-06T10:47:18;25.30;99.90
29725;DHT22;16636;48.394;15.468;2022-09-06T10:49:54;25.40;99.90
29725;DHT22;16636;48.394;15.468;2022-09-06T10:52:33;25.60;99.90
29725;DHT22;16636;48.394;15.468;2022-09-06T10:55:02;25.50;99.90
29725;DHT22;16636;48.394;15.468;2022-09-06T10:57:52;25.40;99.90
29725;DHT22;16636;48.394;15.468;2022-09-06T11:00:20;25.30;99.90
29725;DHT22;16636;48.394;15.468;2022-09-06T11:02:58;25.30;99.90
29725;DHT22;16636;48.394;15.468;2022-09-06T11:05:40;25.30;99.90
29725;DHT22;16636;48.394;15.468;2022-09-06T11:08:19;25.50;99.90
29725;DHT22;16636;48.394;15.468;2022-09-06T11:10:47;25.70;99.90
29725;DHT22;16636;48.394;15.468;2022-09-06T11:13:14;25.90;99.90
29725;DHT22;16636;48.394;15.468;2022-09-06T11:15:49;26.00;99.90
29725;DHT22;16636;48.394;15.468;2022-09-06T11:18:41;26.10;99.90
29725;DHT22;16636;48.394;15.468;2022-09-06T11:26:42;26.70;99.90
29725;DHT22;16636;48.394;15.468;2022-09-06T11:29:17;26.80;99.90
29725;DHT22;16636;48.394;15.468;2022-09-06T11:31:56;26.70;99.90
29725;DHT22;16636;48.394;15.468;2022-09-06T11:34:32;26.70;99.90
29725;DHT22;16636;48.394;15.468;2022-09-06T11:37:00;26.80;99.90
29725;DHT22;16636;48.394;15.468;2022-09-06T11:39:37;26.90;99.90
29725;DHT22;16636;48.394;15.468;2022-09-06T11:42:09;26.90;99.90
29725;DHT22;16636;48.394;15.468;2022-09-06T11:47:38;26.50;99.90
29725;DHT22;16636;48.394;15.468;2022-09-06T11:53:19;26.40;99.90
29725;DHT22;16636;48.394;15.468;2022-09-06T11:58:52;26.20;99.90
29725;DHT22;16636;48.394;15.468;2022-09-06T12:06:23;26.40;99.90
29725;DHT22;16636;48.394;15.468;2022-09-06T12:08:53;26.40;99.90
29725;DHT22;16636;48.394;15.468;2022-09-06T12:11:44;26.60;99.90
29725;DHT22;16636;48.394;15.468;2022-09-06T12:14:39;26.80;99.90
29725;DHT22;16636;48.394;15.468;2022-09-06T12:27:59;27.40;99.90
29725;DHT22;16636;48.394;15.468;2022-09-06T12:30:47;27.40;99.90
29725;DHT22;16636;48.394;15.468;2022-09-06T12:33:30;27.40;99.90
29725;DHT22;16636;48.394;15.468;2022-09-06T12:36:14;27.30;99.90
29725;DHT22;16636;48.394;15.468;2022-09-06T12:38:52;27.00;99.90
29725;DHT22;16636;48.394;15.468;2022-09-06T12:41:18;26.80;99.90
29725;DHT22;16636;48.394;15.468;2022-09-06T12:43:44;26.70;99.90
29725;DHT22;16636;48.394;15.468;2022-09-06T12:46:10;26.60;99.90
29725;DHT22;16636;48.394;15.468;2022-09-06T12:48:36;26.50;99.90
29725;DHT22;16636;48.394;15.468;2022-09-06T12:51:06;26.30;99.90
29725;DHT22;16636;48.394;15.468;2022-09-06T12:53:34;26.20;99.90
29725;DHT22;16636;48.394;15.468;2022-09-06T12:56:09;26.00;99.90
29725;DHT22;16636;48.394;15.468;2022-09-06T12:58:37;25.90;99.90
29725;DHT22;16636;48.394;15.468;2022-09-06T13:01:11;25.80;99.90
29725;DHT22;16636;48.394;15.468;2022-09-06T13:06:34;25.70;99.90
29725;DHT22;16636;48.394;15.468;2022-09-06T13:09:02;25.90;99.90
29725;DHT22;16636;48.394;15.468;2022-09-06T13:11:33;26.10;99.90
29725;DHT22;16636;48.394;15.468;2022-09-06T13:14:00;26.60;99.90
29725;DHT22;16636;48.394;15.468;2022-09-06T13:16:34;26.90;99.90
29725;DHT22;16636;48.394;15.468;2022-09-06T13:19:27;27.10;99.90
29725;DHT22;16636;48.394;15.468;2022-09-06T13:21:54;27.40;99.90
29725;DHT22;16636;48.394;15.468;2022-09-06T13:26:49;27.80;99.90
29725;DHT22;16636;48.394;15.468;2022-09-06T13:31:50;27.70;99.90
29725;DHT22;16636;48.394;15.468;2022-09-06T13:34:25;27.60;99.90
29725;DHT22;16636;48.394;15.468;2022-09-06T13:36:53;27.50;99.90
29725;DHT22;16636;48.394;15.468;2022-09-06T13:39:34;27.50;99.90
29725;DHT22;16636;48.394;15.468;2022-09-06T13:42:02;27.50;99.90
29725;DHT22;16636;48.394;15.468;2022-09-06T13:44:32;27.70;99.90
29725;DHT22;16636;48.394;15.468;2022-09-06T13:46:58;27.70;99.90
29725;DHT22;16636;48.394;15.468;2022-09-06T13:49:24;27.80;99.90
29725;DHT22;16636;48.394;15.468;2022-09-06T13:51:52;27.80;99.90
29725;DHT22;16636;48.394;15.468;2022-09-06T13:54:18;28.00;99.90
29725;DHT22;16636;48.394;15.468;2022-09-06T13:56:44;28.20;99.90
29725;DHT22;16636;48.394;15.468;2022-09-06T13:59:11;28.40;99.90
29725;DHT22;16636;48.394;15.468;2022-09-06T14:01:41;28.50;99.90
29725;DHT22;16636;48.394;15.468;2022-09-06T14:04:11;28.50;99.90
29725;DHT22;16636;48.394;15.468;2022-09-06T14:06:38;28.40;99.90
29725;DHT22;16636;48.394;15.468;2022-09-06T14:09:05;28.30;99.90
29725;DHT22;16636;48.394;15.468;2022-09-06T14:11:31;28.20;99.90
29725;DHT22;16636;48.394;15.468;2022-09-06T14:13:57;28.00;99.90
29725;DHT22;16636;48.394;15.468;2022-09-06T14:16:23;27.90;99.90
29725;DHT22;16636;48.394;15.468;2022-09-06T14:18:50;27.70;99.90
29725;DHT22;16636;48.394;15.468;2022-09-06T14:21:16;27.40;99.90
29725;DHT22;16636;48.394;15.468;2022-09-06T14:23:46;27.20;99.90
29725;DHT22;16636;48.394;15.468;2022-09-06T14:26:12;27.10;99.90
29725;DHT22;16636;48.394;15.468;2022-09-06T14:28:39;27.00;99.90
29725;DHT22;16636;48.394;15.468;2022-09-06T14:33:35;26.70;99.90
29725;DHT22;16636;48.394;15.468;2022-09-06T14:36:13;26.70;99.90
29725;DHT22;16636;48.394;15.468;2022-09-06T14:38:40;26.70;99.90
29725;DHT22;16636;48.394;15.468;2022-09-06T14:41:07;26.60;99.90
29725;DHT22;16636;48.394;15.468;2022-09-06T14:43:34;26.40;99.90
29725;DHT22;16636;48.394;15.468;2022-09-06T14:46:09;26.40;99.90
29725;DHT22;16636;48.394;15.468;2022-09-06T14:48:35;26.30;99.90
29725;DHT22;16636;48.394;15.468;2022-09-06T14:51:11;26.20;99.90
29725;DHT22;16636;48.394;15.468;2022-09-06T14:53:42;26.20;99.90
29725;DHT22;16636;48.394;15.468;2022-09-06T14:56:08;26.10;99.90
29725;DHT22;16636;48.394;15.468;2022-09-06T14:58:36;26.10;99.90
29725;DHT22;16636;48.394;15.468;2022-09-06T15:03:33;26.10;99.90
29725;DHT22;16636;48.394;15.468;2022-09-06T15:06:00;26.10;99.90
29725;DHT22;16636;48.394;15.468;2022-09-06T15:08:26;26.10;99.90
29725;DHT22;16636;48.394;15.468;2022-09-06T15:10:54;26.10;99.90
29725;DHT22;16636;48.394;15.468;2022-09-06T15:13:20;26.00;99.90
29725;DHT22;16636;48.394;15.468;2022-09-06T15:15:46;26.00;99.90
29725;DHT22;16636;48.394;15.468;2022-09-06T15:18:14;26.00;99.90
29725;DHT22;16636;48.394;15.468;2022-09-06T15:20:39;25.90;99.90
29725;DHT22;16636;48.394;15.468;2022-09-06T15:23:05;25.90;99.90
29725;DHT22;16636;48.394;15.468;2022-09-06T15:25:31;25.80;99.90
29725;DHT22;16636;48.394;15.468;2022-09-06T15:27:57;25.80;99.90
29725;DHT22;16636;48.394;15.468;2022-09-06T15:30:23;25.90;99.90
29725;DHT22;16636;48.394;15.468;2022-09-06T15:32:49;26.00;99.90
29725;DHT22;16636;48.394;15.468;2022-09-06T15:35:17;26.00;99.90
29725;DHT22;16636;48.394;15.468;2022-09-06T15:37:46;26.00;99.90
29725;DHT22;16636;48.394;15.468;2022-09-06T15:40:13;26.00;99.90
29725;DHT22;16636;48.394;15.468;2022-09-06T15:42:40;26.00;99.90
29725;DHT22;16636;48.394;15.468;2022-09-06T15:45:11;26.00;99.90
29725;DHT22;16636;48.394;15.468;2022-09-06T15:47:43;26.00;99.90
29725;DHT22;16636;48.394;15.468;2022-09-06T15:50:14;25.90;99.90
29725;DHT22;16636;48.394;15.468;2022-09-06T15:52:46;25.90;99.90
29725;DHT22;16636;48.394;15.468;2022-09-06T15:55:17;25.90;99.90
29725;DHT22;16636;48.394;15.468;2022-09-06T16:01:24;25.80;99.90
29725;DHT22;16636;48.394;15.468;2022-09-06T16:03:58;25.80;99.90
29725;DHT22;16636;48.394;15.468;2022-09-06T16:06:35;25.80;99.90
29725;DHT22;16636;48.394;15.468;2022-09-06T16:09:08;25.80;99.90
29725;DHT22;16636;48.394;15.468;2022-09-06T16:11:38;25.80;99.90
29725;DHT22;16636;48.394;15.468;2022-09-06T16:14:06;25.70;99.90
29725;DHT22;16636;48.394;15.468;2022-09-06T16:16:34;25.60;99.90
29725;DHT22;16636;48.394;15.468;2022-09-06T16:19:00;25.60;99.90
29725;DHT22;16636;48.394;15.468;2022-09-06T16:21:29;25.60;99.90
29725;DHT22;16636;48.394;15.468;2022-09-06T16:24:07;25.50;99.90
29725;DHT22;16636;48.394;15.468;2022-09-06T16:26:36;25.50;99.90
29725;DHT22;16636;48.394;15.468;2022-09-06T16:29:04;25.40;99.90
29725;DHT22;16636;48.394;15.468;2022-09-06T16:31:31;25.30;99.90
29725;DHT22;16636;48.394;15.468;2022-09-06T16:33:58;25.30;99.90
29725;DHT22;16636;48.394;15.468;2022-09-06T16:36:26;25.20;99.90
29725;DHT22;16636;48.394;15.468;2022-09-06T16:38:52;25.20;99.90
29725;DHT22;16636;48.394;15.468;2022-09-06T16:41:40;25.10;99.90
29725;DHT22;16636;48.394;15.468;2022-09-06T16:44:14;25.10;99.90
29725;DHT22;16636;48.394;15.468;2022-09-06T16:46:46;25.00;99.90
29725;DHT22;16636;48.394;15.468;2022-09-06T16:49:12;24.90;99.90
29725;DHT22;16636;48.394;15.468;2022-09-06T16:51:41;24.80;99.90
29725;DHT22;16636;48.394;15.468;2022-09-06T16:54:08;24.70;99.90
29725;DHT22;16636;48.394;15.468;2022-09-06T16:56:34;24.70;99.90
29725;DHT22;16636;48.394;15.468;2022-09-06T16:59:03;24.60;99.90
29725;DHT22;16636;48.394;15.468;2022-09-06T17:01:30;24.50;99.90
29725;DHT22;16636;48.394;15.468;2022-09-06T17:03:57;24.50;99.90
29725;DHT22;16636;48.394;15.468;2022-09-06T17:06:24;24.40;99.90
29725;DHT22;16636;48.394;15.468;2022-09-06T17:08:50;24.30;99.90
29725;DHT22;16636;48.394;15.468;2022-09-06T17:11:19;24.30;99.90
29725;DHT22;16636;48.394;15.468;2022-09-06T17:13:46;24.30;99.90
29725;DHT22;16636;48.394;15.468;2022-09-06T17:16:14;24.20;99.90
29725;DHT22;16636;48.394;15.468;2022-09-06T17:19:00;24.10;99.90
29725;DHT22;16636;48.394;15.468;2022-09-06T17:21:30;24.10;99.90
29725;DHT22;16636;48.394;15.468;2022-09-06T17:23:56;24.10;99.90
29725;DHT22;16636;48.394;15.468;2022-09-06T17:26:28;24.00;99.90
29725;DHT22;16636;48.394;15.468;2022-09-06T17:28:54;24.00;99.90
29725;DHT22;16636;48.394;15.468;2022-09-06T17:31:22;23.90;99.90
29725;DHT22;16636;48.394;15.468;2022-09-06T17:33:48;23.80;99.90
29725;DHT22;16636;48.394;15.468;2022-09-06T17:36:20;23.80;99.90
29725;DHT22;16636;48.394;15.468;2022-09-06T17:38:46;23.80;99.90
29725;DHT22;16636;48.394;15.468;2022-09-06T17:41:27;23.80;99.90